Leadwood, Missouri
Current Conditions -  °F | °C
As of 12:15 PM on Friday 31 Oct 2014 (Local Time) from KSAR Reporting Station
Scattered Clouds Scattered Clouds  
Wind Chill: 34°   Ceiling: Unl
Heat Index: 43°   Visibility: 10mi
Dew Point: 25°   Wind: 21mph
Humidity: 49%   Direction: 330°NNW
Pressure: 30.25"   Gusts: 30mph
Location:  37.87°N, 90.59°W
Report Text: KSAR 311715Z AUTO 33018G26KT 10SM SCT048 SCT050 06/M04 A3025 RMK AO2 T00611039
Loading
Personal Weather Stations






























Interactive Weather Map
Tropical Storm Tracking
New forecast layout! Learn more

10-Day Weather Forecast

Advertisements
Track Severe Weather on mobile